createdAt,value
2023-06-17T00:00:42.186Z,100017.63
2023-06-17T00:03:09.606Z,100017.00
2023-06-17T00:05:39.119Z,100016.09
2023-06-17T00:08:05.997Z,100013.75
2023-06-17T00:10:33.545Z,100011.35
2023-06-17T00:13:01.000Z,100010.27
2023-06-17T00:15:29.481Z,100010.45
2023-06-17T00:17:57.146Z,100008.96
2023-06-17T00:20:24.073Z,100009.80
2023-06-17T00:22:56.050Z,100008.64
2023-06-17T00:37:06.202Z,100006.97
2023-06-17T00:39:33.576Z,100008.36
2023-06-17T00:42:01.516Z,100005.34
2023-06-17T00:44:29.018Z,100003.23
2023-06-17T00:46:56.583Z,100002.56
2023-06-17T00:49:28.126Z,100004.00
2023-06-17T00:52:15.074Z,100006.55
2023-06-17T00:54:44.088Z,100008.48
2023-06-17T00:57:14.854Z,100008.13
2023-06-17T00:59:44.945Z,100002.34
2023-06-17T01:02:13.026Z,100007.35
2023-06-17T01:04:44.062Z,100001.99
2023-06-17T01:07:24.628Z,100009.73
2023-06-17T01:09:57.505Z,100008.29
2023-06-17T01:12:27.182Z,100002.50
2023-06-17T01:14:55.803Z,100006.49
2023-06-17T01:17:23.406Z,100004.91
2023-06-17T01:19:50.827Z,100005.80
2023-06-17T01:22:19.102Z,100009.71
2023-06-17T01:24:50.550Z,100006.98
2023-06-17T01:27:21.264Z,100005.86
2023-06-17T01:29:50.486Z,100007.19
2023-06-17T01:32:18.225Z,100008.10
2023-06-17T01:35:02.122Z,100008.00
2023-06-17T01:37:51.872Z,100006.55
2023-06-17T01:40:20.966Z,100007.85
2023-06-17T01:42:49.991Z,100006.98
2023-06-17T01:45:17.566Z,100005.27
2023-06-17T01:47:44.968Z,100007.66
2023-06-17T01:50:12.887Z,100007.88
2023-06-17T01:52:40.611Z,100009.98
2023-06-17T01:55:09.136Z,100009.21
2023-06-17T01:57:36.654Z,100010.20
2023-06-17T02:00:05.657Z,100008.37
2023-06-17T02:02:33.149Z,100007.77
2023-06-17T02:05:02.378Z,100010.55
2023-06-17T02:07:29.967Z,100011.89
2023-06-17T02:09:57.523Z,100012.32
2023-06-17T02:12:26.237Z,100012.80
2023-06-17T02:14:53.875Z,100013.16
2023-06-17T02:17:21.538Z,100016.61
2023-06-17T02:19:48.994Z,100016.25
2023-06-17T02:22:16.555Z,100015.39
2023-06-17T02:24:44.124Z,100017.58
2023-06-17T02:27:12.115Z,100017.11
2023-06-17T02:29:39.748Z,100016.86
2023-06-17T02:32:10.558Z,100015.83
2023-06-17T02:34:40.002Z,100016.11
2023-06-17T02:37:08.810Z,100012.66
2023-06-17T02:39:37.263Z,100009.80
2023-06-17T02:42:05.398Z,100012.94
2023-06-17T02:44:32.994Z,100011.16
2023-06-17T02:47:00.852Z,100014.66
2023-06-17T02:49:28.734Z,100015.77
2023-06-17T02:51:56.194Z,100012.63
2023-06-17T02:54:23.646Z,100009.46
2023-06-17T02:56:51.059Z,100009.80
2023-06-17T02:59:19.123Z,100014.86
2023-06-17T03:01:47.391Z,100016.55
2023-06-17T03:04:15.520Z,100019.27
2023-06-17T03:06:43.108Z,100019.66
2023-06-17T03:09:10.952Z,100014.73
2023-06-17T03:11:38.817Z,100016.23
2023-06-17T03:14:06.992Z,100018.61
2023-06-17T03:16:35.640Z,100021.60
2023-06-17T03:19:03.554Z,100020.30
2023-06-17T03:21:33.916Z,100018.05
2023-06-17T03:24:02.596Z,100017.98
2023-06-17T03:26:31.188Z,100018.10
2023-06-17T03:28:59.222Z,100023.92
2023-06-17T03:31:26.792Z,100027.30
2023-06-17T03:33:54.555Z,100031.48
2023-06-17T03:36:31.058Z,100028.70
2023-06-17T03:38:58.780Z,100029.11
2023-06-17T03:41:27.577Z,100027.02
2023-06-17T03:43:55.053Z,100026.86
2023-06-17T03:46:22.804Z,100028.65
2023-06-17T03:48:50.350Z,100031.49
2023-06-17T03:51:18.835Z,100032.17
2023-06-17T03:53:46.496Z,100033.66
2023-06-17T03:56:14.981Z,100035.72
2023-06-17T03:58:42.536Z,100031.48
2023-06-17T04:01:14.098Z,100032.07
2023-06-17T04:03:43.261Z,100032.06
2023-06-17T04:06:13.201Z,100031.98
2023-06-17T04:08:43.137Z,100029.74
2023-06-17T04:11:10.864Z,100031.23
2023-06-17T04:13:38.461Z,100036.45
2023-06-17T04:16:06.719Z,100035.10
2023-06-17T04:18:34.528Z,100034.66
2023-06-17T04:21:03.087Z,100035.77
2023-06-17T04:23:32.479Z,100034.09
2023-06-17T04:26:01.960Z,100031.47
2023-06-17T04:28:33.467Z,100031.55
2023-06-17T04:31:02.592Z,100035.94
2023-06-17T04:33:39.203Z,100036.84
2023-06-17T04:36:10.358Z,100037.17
2023-06-17T04:38:43.329Z,100035.70
2023-06-17T04:41:11.435Z,100036.64
2023-06-17T04:43:39.194Z,100036.16
2023-06-17T04:46:10.164Z,100037.30
2023-06-17T04:48:38.886Z,100037.71
2023-06-17T04:51:07.313Z,100033.11
2023-06-17T04:53:35.246Z,100033.48
2023-06-17T04:56:05.867Z,100036.32
2023-06-17T04:58:34.566Z,100038.63
2023-06-17T05:01:10.834Z,100038.98
2023-06-17T05:03:38.544Z,100042.30
2023-06-17T05:06:06.307Z,100043.90
2023-06-17T05:08:33.859Z,100045.02
2023-06-17T05:11:01.604Z,100046.55
2023-06-17T05:13:30.074Z,100048.55
2023-06-17T05:15:58.878Z,100048.42
2023-06-17T05:18:27.637Z,100050.06
2023-06-17T05:20:55.206Z,100053.20
2023-06-17T05:23:22.964Z,100057.44
2023-06-17T05:25:51.182Z,100058.85
2023-06-17T05:28:19.520Z,100056.89
2023-06-17T05:30:47.563Z,100055.97
2023-06-17T05:33:17.227Z,100052.81
2023-06-17T05:35:45.057Z,100054.55
2023-06-17T05:38:13.445Z,100055.14
2023-06-17T05:40:41.517Z,100061.17
2023-06-17T05:43:09.111Z,100061.76
2023-06-17T05:45:36.560Z,100059.73
2023-06-17T05:48:04.505Z,100057.94
2023-06-17T05:50:32.209Z,100055.88
2023-06-17T05:53:01.483Z,100060.92
2023-06-17T05:55:28.960Z,100062.30
2023-06-17T05:57:56.994Z,100062.52
2023-06-17T06:00:25.010Z,100065.14
2023-06-17T06:02:54.064Z,100064.27
2023-06-17T06:05:21.590Z,100063.86
2023-06-17T06:07:49.086Z,100063.05
2023-06-17T06:10:16.861Z,100061.08
2023-06-17T06:12:47.314Z,100064.48
2023-06-17T06:15:15.040Z,100062.31
2023-06-17T06:17:42.441Z,100063.98
2023-06-17T06:20:10.881Z,100063.74
2023-06-17T06:22:39.171Z,100062.14
2023-06-17T06:25:07.194Z,100057.89
2023-06-17T06:27:35.029Z,100057.54
2023-06-17T06:30:03.384Z,100059.27
2023-06-17T06:32:31.095Z,100059.58
2023-06-17T06:34:59.225Z,100057.45
2023-06-17T06:37:27.899Z,100060.23
2023-06-17T06:39:55.469Z,100055.98
2023-06-17T06:42:23.453Z,100055.70
2023-06-17T06:44:53.451Z,100052.83
2023-06-17T06:47:22.169Z,100056.69
2023-06-17T06:49:50.323Z,100056.52
2023-06-17T06:52:17.789Z,100050.58
2023-06-17T06:54:45.524Z,100054.69
2023-06-17T06:57:13.193Z,100055.94
2023-06-17T06:59:41.390Z,100056.43
2023-06-17T07:02:09.025Z,100057.09
2023-06-17T07:04:36.842Z,100056.31
2023-06-17T07:07:05.473Z,100056.85
2023-06-17T07:09:36.363Z,100050.91
2023-06-17T07:12:04.332Z,100051.97
2023-06-17T07:14:32.301Z,100049.77
2023-06-17T07:17:01.057Z,100052.85
2023-06-17T07:19:28.674Z,100052.70
2023-06-17T07:21:56.315Z,100054.00
2023-06-17T07:24:24.127Z,100056.64
2023-06-17T07:26:51.793Z,100053.72
2023-06-17T07:29:21.909Z,100060.88
2023-06-17T07:31:49.454Z,100062.23
2023-06-17T07:34:16.942Z,100066.73
2023-06-17T07:36:44.541Z,100063.19
2023-06-17T07:39:13.683Z,100062.63
2023-06-17T07:41:41.244Z,100065.98
2023-06-17T07:44:08.744Z,100061.40
2023-06-17T07:46:36.185Z,100057.77
2023-06-17T07:49:03.893Z,100059.71
2023-06-17T07:51:32.205Z,100058.83
2023-06-17T07:53:59.668Z,100057.96
2023-06-17T07:56:28.872Z,100051.96
2023-06-17T07:58:57.266Z,100047.64
2023-06-17T08:01:24.827Z,100052.70
2023-06-17T08:03:52.596Z,100053.20
2023-06-17T08:06:20.330Z,100048.11
2023-06-17T08:08:48.029Z,100046.30
2023-06-17T08:11:15.379Z,100045.44
2023-06-17T08:13:42.904Z,100051.73
2023-06-17T08:16:10.260Z,100050.18
2023-06-17T08:18:37.678Z,100045.67
2023-06-17T08:21:05.323Z,100045.98
2023-06-17T08:23:33.096Z,100045.69
2023-06-17T08:26:00.605Z,100047.59
2023-06-17T08:28:28.684Z,100044.42
2023-06-17T08:30:56.279Z,100047.70
2023-06-17T08:33:23.903Z,100045.60
2023-06-17T08:35:51.462Z,100044.98
2023-06-17T08:38:18.811Z,100048.65
2023-06-17T08:40:47.002Z,100050.38
2023-06-17T08:43:19.486Z,100053.33
2023-06-17T08:45:52.893Z,100053.27
2023-06-17T08:48:20.740Z,100053.23
2023-06-17T08:50:50.449Z,100051.23
2023-06-17T08:53:18.324Z,100048.06
2023-06-17T08:55:45.880Z,100048.94
2023-06-17T08:58:13.310Z,100048.36
2023-06-17T09:00:40.863Z,100047.80
2023-06-17T09:03:09.513Z,100052.48
2023-06-17T09:05:37.439Z,100053.20
2023-06-17T09:08:05.198Z,100047.65
2023-06-17T09:10:43.424Z,100040.30
2023-06-17T09:13:12.054Z,100041.16
2023-06-17T09:15:41.202Z,100039.96
2023-06-17T09:18:09.485Z,100039.23
2023-06-17T09:20:37.087Z,100041.11
2023-06-17T09:23:05.317Z,100037.23
2023-06-17T09:25:35.078Z,100037.86
2023-06-17T09:28:15.969Z,100039.37
2023-06-17T09:30:45.215Z,100036.06
2023-06-17T09:33:20.523Z,100037.28
2023-06-17T09:35:48.963Z,100034.52
2023-06-17T09:38:18.700Z,100036.80
2023-06-17T09:40:48.790Z,100033.44
2023-06-17T09:43:27.466Z,100030.04
2023-06-17T09:45:57.227Z,100029.77
2023-06-17T09:48:26.241Z,100028.35
2023-06-17T09:50:57.264Z,100028.16
2023-06-17T09:53:28.705Z,100028.34
2023-06-17T09:55:58.664Z,100027.04
2023-06-17T09:58:32.009Z,100023.35
2023-06-17T10:01:02.125Z,100020.23
2023-06-17T10:03:30.093Z,100020.11
2023-06-17T10:06:04.598Z,100017.54
2023-06-17T10:08:32.376Z,100013.45
2023-06-17T10:11:01.252Z,100013.44
2023-06-17T10:13:30.658Z,100014.52
2023-06-17T10:15:58.218Z,100015.39
2023-06-17T10:18:25.885Z,100012.85
2023-06-17T10:20:53.299Z,100010.55
2023-06-17T10:23:22.007Z,100013.17
2023-06-17T10:25:49.432Z,100009.16
2023-06-17T10:28:17.397Z,100007.56
2023-06-17T10:30:45.523Z,100006.11
2023-06-17T10:33:13.148Z,100006.55
2023-06-17T10:35:45.524Z,100006.20
2023-06-17T10:38:29.517Z,100007.05
2023-06-17T10:40:58.295Z,100002.21
2023-06-17T10:43:25.990Z,100003.79
2023-06-17T10:45:57.346Z,100002.42
2023-06-17T10:48:34.536Z,99999.95
2023-06-17T10:51:12.089Z,100000.02
2023-06-17T10:53:43.220Z,100002.80
2023-06-17T10:56:11.521Z,100004.06
2023-06-17T10:58:45.409Z,100004.84
2023-06-17T11:01:13.105Z,100004.23
2023-06-17T11:03:41.591Z,100001.84
2023-06-17T11:06:10.439Z,100000.96
2023-06-17T11:08:38.331Z,99999.65
2023-06-17T11:11:13.748Z,99996.95
2023-06-17T11:13:45.837Z,99995.60
2023-06-17T11:16:13.291Z,99995.13
2023-06-17T11:18:44.539Z,99995.91
2023-06-17T11:21:12.107Z,99995.96
2023-06-17T11:23:40.166Z,99996.84
2023-06-17T11:26:08.578Z,99992.55
2023-06-17T11:28:37.097Z,99988.23
2023-06-17T11:31:05.065Z,99985.42
2023-06-17T11:33:35.520Z,99985.58
2023-06-17T11:36:05.072Z,99984.27
2023-06-17T11:38:32.601Z,99983.06
2023-06-17T11:41:00.193Z,99981.93
2023-06-17T11:43:28.024Z,99978.20
2023-06-17T11:45:59.551Z,99981.15
2023-06-17T11:48:30.875Z,99974.69
2023-06-17T11:50:58.381Z,99978.09
2023-06-17T11:53:37.908Z,99975.79
2023-06-17T11:56:06.994Z,99975.08
2023-06-17T11:58:39.909Z,99967.55
2023-06-17T12:01:08.235Z,99965.70
2023-06-17T12:03:36.270Z,99963.09
2023-06-17T12:06:04.434Z,99961.31
2023-06-17T12:08:38.743Z,99963.32
2023-06-17T12:11:29.114Z,99961.88
2023-06-17T12:13:56.805Z,99960.73
2023-06-17T12:16:37.787Z,99955.48
2023-06-17T12:19:10.416Z,99951.98
2023-06-17T12:21:37.986Z,99948.04
2023-06-17T12:24:05.616Z,99944.29
2023-06-17T12:26:33.042Z,99943.36
2023-06-17T12:29:03.018Z,99935.70
2023-06-17T12:31:33.500Z,99939.46
2023-06-17T12:34:00.947Z,99939.94
2023-06-17T12:36:28.925Z,99935.86
2023-06-17T12:38:56.375Z,99935.52
2023-06-17T12:44:13.918Z,99937.79
2023-06-17T12:46:42.661Z,99933.75
2023-06-17T12:49:10.430Z,99933.05
2023-06-17T12:51:37.923Z,99931.59
2023-06-17T12:54:06.413Z,99926.59
2023-06-17T12:56:33.872Z,99922.36
2023-06-17T12:59:02.334Z,99921.39
2023-06-17T13:01:30.472Z,99912.91
2023-06-17T13:03:58.881Z,99912.40
2023-06-17T13:06:27.487Z,99909.95
2023-06-17T13:08:55.658Z,99907.91
2023-06-17T13:11:23.286Z,99909.54
2023-06-17T13:13:51.670Z,99907.84
2023-06-17T13:16:19.219Z,99909.62
2023-06-17T13:18:46.717Z,99904.05
2023-06-17T13:21:14.098Z,99898.83
2023-06-17T13:23:41.734Z,99892.66
2023-06-17T13:26:09.395Z,99889.94
2023-06-17T13:28:38.391Z,99889.18
2023-06-17T13:31:05.755Z,99891.98
2023-06-17T13:33:34.024Z,99887.54
2023-06-17T13:36:01.725Z,99886.76
2023-06-17T13:38:29.249Z,99884.63
2023-06-17T13:40:56.702Z,99884.29
2023-06-17T13:43:24.195Z,99881.77
2023-06-17T13:45:51.783Z,99878.05
2023-06-17T13:48:20.410Z,99876.73
2023-06-17T13:50:48.276Z,99880.61
2023-06-17T13:53:15.816Z,99877.70
2023-06-17T13:55:43.712Z,99876.39
2023-06-17T13:58:11.576Z,99870.64
2023-06-17T14:00:39.086Z,99869.33
2023-06-17T14:03:06.532Z,99866.38
2023-06-17T14:05:34.480Z,99864.61
2023-06-17T14:08:02.538Z,99866.21
2023-06-17T14:10:30.018Z,99871.56
2023-06-17T14:12:57.595Z,99868.72
2023-06-17T14:15:24.950Z,99864.65
2023-06-17T14:17:52.350Z,99868.34
2023-06-17T14:20:20.524Z,99868.46
2023-06-17T14:22:59.554Z,99868.27
2023-06-17T14:25:27.543Z,99870.44
2023-06-17T14:27:55.099Z,99869.19
2023-06-17T14:30:22.953Z,99864.75
2023-06-17T14:32:50.889Z,99862.14
2023-06-17T14:35:18.865Z,99865.25
2023-06-17T14:37:48.723Z,99865.96
2023-06-17T14:40:17.012Z,99862.95
2023-06-17T14:42:44.558Z,99860.77
2023-06-17T14:45:13.458Z,99863.16
2023-06-17T14:47:41.266Z,99862.97
2023-06-17T14:50:10.108Z,99862.02
2023-06-17T14:52:37.562Z,99864.67
2023-06-17T14:55:05.472Z,99864.91
2023-06-17T14:57:33.820Z,99867.80
2023-06-17T15:00:01.651Z,99864.59
2023-06-17T15:02:56.240Z,99860.88
2023-06-17T15:05:27.117Z,99865.14
2023-06-17T15:07:54.608Z,99864.50
2023-06-17T15:10:22.781Z,99863.11
2023-06-17T15:12:50.877Z,99865.81
2023-06-17T15:15:18.758Z,99869.16
2023-06-17T15:17:46.499Z,99872.81
2023-06-17T15:20:13.943Z,99871.97
2023-06-17T15:22:42.276Z,99870.35
2023-06-17T15:25:10.367Z,99873.00
2023-06-17T15:27:37.910Z,99872.02
2023-06-17T15:30:06.305Z,99871.50
2023-06-17T15:32:33.730Z,99878.98
2023-06-17T15:35:01.411Z,99878.03
2023-06-17T15:37:33.302Z,99878.84
2023-06-17T15:40:02.115Z,99873.77
2023-06-17T15:42:29.769Z,99873.38
2023-06-17T15:44:57.393Z,99874.28
2023-06-17T15:47:24.866Z,99876.02
2023-06-17T15:49:52.319Z,99879.44
2023-06-17T15:52:24.482Z,99877.27
2023-06-17T15:54:55.002Z,99881.30
2023-06-17T15:57:23.546Z,99882.11
2023-06-17T15:59:51.486Z,99885.20
2023-06-17T16:02:19.225Z,99887.05
2023-06-17T16:04:49.962Z,99891.15
2023-06-17T16:07:17.617Z,99894.66
2023-06-17T16:09:49.186Z,99893.68
2023-06-17T16:12:17.393Z,99893.96
2023-06-17T16:14:45.448Z,99892.49
2023-06-17T16:17:13.103Z,99894.41
2023-06-17T16:19:40.786Z,99896.20
2023-06-17T16:22:11.889Z,99900.55
2023-06-17T16:24:40.290Z,99900.56
2023-06-17T16:27:07.861Z,99902.10
2023-06-17T16:29:35.574Z,99899.80
2023-06-17T16:32:03.247Z,99898.32
2023-06-17T16:34:30.918Z,99902.46
2023-06-17T16:36:58.293Z,99906.55
2023-06-17T16:39:26.144Z,99906.14
2023-06-17T16:41:53.807Z,99905.44
2023-06-17T16:44:21.707Z,99908.83
2023-06-17T16:46:49.343Z,99914.39
2023-06-17T16:49:17.107Z,99914.57
2023-06-17T16:51:45.033Z,99915.94
2023-06-17T16:54:12.587Z,99915.02
2023-06-17T16:56:40.045Z,99917.59
2023-06-17T16:59:07.618Z,99916.16
2023-06-17T17:01:35.138Z,99921.78
2023-06-17T17:04:08.633Z,99923.62
2023-06-17T17:06:36.363Z,99921.98
2023-06-17T17:09:04.803Z,99923.75
2023-06-17T17:11:32.621Z,99923.84
2023-06-17T17:14:00.173Z,99928.77
2023-06-17T17:16:28.192Z,99930.49
2023-06-17T17:18:55.672Z,99929.83
2023-06-17T17:21:23.255Z,99933.59
2023-06-17T17:23:50.893Z,99934.46
2023-06-17T17:26:18.483Z,99937.70
2023-06-17T17:28:46.349Z,99943.48
2023-06-17T17:31:13.761Z,99945.39
2023-06-17T17:33:42.083Z,99946.89
2023-06-17T17:36:12.000Z,99947.89
2023-06-17T17:38:39.462Z,99951.91
2023-06-17T17:41:07.017Z,99953.02
2023-06-17T17:43:34.578Z,99955.39
2023-06-17T17:46:04.191Z,99959.27
2023-06-17T17:48:31.711Z,99963.23
2023-06-17T17:50:59.126Z,99963.39
2023-06-17T17:53:26.775Z,99967.13
2023-06-17T17:55:54.224Z,99968.80
2023-06-17T17:58:21.838Z,99970.38
2023-06-17T18:00:49.450Z,99971.97
2023-06-17T18:03:17.315Z,99973.90
2023-06-17T18:05:45.402Z,99975.91
2023-06-17T18:08:12.844Z,99980.25
2023-06-17T18:10:40.415Z,99985.86
2023-06-17T18:13:07.801Z,99987.84
2023-06-17T18:15:35.331Z,99990.84
2023-06-17T18:18:02.844Z,99998.97
2023-06-17T18:20:30.266Z,99998.74
2023-06-17T18:22:57.799Z,100003.55
2023-06-17T18:25:25.360Z,100004.89
2023-06-17T18:27:53.022Z,100007.30
2023-06-17T18:30:20.814Z,100008.46
2023-06-17T18:32:48.409Z,100012.34
2023-06-17T18:35:15.990Z,100019.23
2023-06-17T18:37:43.572Z,100019.58
2023-06-17T18:40:11.673Z,100022.92
2023-06-17T18:42:39.204Z,100026.30
2023-06-17T18:45:09.910Z,100027.01
2023-06-17T18:47:38.224Z,100032.72
2023-06-17T18:50:07.483Z,100035.86
2023-06-17T18:52:35.174Z,100034.89
2023-06-17T18:55:03.056Z,100039.27
2023-06-17T18:57:30.923Z,100040.46
2023-06-17T18:59:58.360Z,100040.13
2023-06-17T19:02:28.345Z,100047.53
2023-06-17T19:04:57.168Z,100047.65
2023-06-17T19:07:24.734Z,100046.05
2023-06-17T19:09:52.202Z,100045.13
2023-06-17T19:12:19.803Z,100043.06
2023-06-17T19:14:47.312Z,100044.66
2023-06-17T19:17:15.018Z,100049.01
2023-06-17T19:19:42.740Z,100054.15
2023-06-17T19:22:10.311Z,100056.93
2023-06-17T19:24:37.820Z,100064.03
2023-06-17T19:27:05.736Z,100065.20
2023-06-17T19:29:33.293Z,100065.50
2023-06-17T19:32:00.956Z,100066.49
2023-06-17T19:34:28.820Z,100068.83
2023-06-17T19:36:56.274Z,100071.34
2023-06-17T19:39:23.834Z,100073.04
2023-06-17T19:41:51.393Z,100072.42
2023-06-17T19:44:18.829Z,100070.77
2023-06-17T19:46:46.386Z,100070.02
2023-06-17T19:49:13.974Z,100068.92
2023-06-17T19:51:41.538Z,100067.55
2023-06-17T19:54:09.029Z,100066.95
2023-06-17T19:56:37.066Z,100067.63
2023-06-17T19:59:04.479Z,100069.33
2023-06-17T20:01:32.652Z,100067.56
2023-06-17T20:04:00.190Z,100068.47
2023-06-17T20:06:27.816Z,100070.45
2023-06-17T20:08:55.383Z,100068.40
2023-06-17T20:11:26.959Z,100070.93
2023-06-17T20:13:54.497Z,100071.29
2023-06-17T20:16:22.428Z,100073.53
2023-06-17T20:18:50.035Z,100075.92
2023-06-17T20:21:17.475Z,100076.09
2023-06-17T20:23:44.859Z,100072.70
2023-06-17T20:26:12.823Z,100075.58
2023-06-17T20:28:40.271Z,100074.94
2023-06-17T20:31:09.252Z,100074.05
2023-06-17T20:33:38.899Z,100074.98
2023-06-17T20:36:06.673Z,100071.22
2023-06-17T20:38:34.190Z,100068.95
2023-06-17T20:41:01.880Z,100071.77
2023-06-17T20:43:29.305Z,100072.33
2023-06-17T20:45:57.236Z,100066.75
2023-06-17T20:48:24.777Z,100064.91
2023-06-17T20:50:52.305Z,100065.83
2023-06-17T20:53:19.659Z,100062.46
2023-06-17T20:55:47.210Z,100068.43
2023-06-17T20:58:14.668Z,100067.29
2023-06-17T21:00:42.092Z,100060.36
2023-06-17T21:03:11.789Z,100060.46
2023-06-17T21:05:39.293Z,100056.96
2023-06-17T21:08:06.828Z,100057.34
2023-06-17T21:10:34.316Z,100058.48
2023-06-17T21:13:01.733Z,100060.54
2023-06-17T21:15:29.152Z,100057.72
2023-06-17T21:17:56.877Z,100056.27
2023-06-17T21:20:24.678Z,100057.94
2023-06-17T21:22:52.242Z,100060.90
2023-06-17T21:25:19.778Z,100059.83
2023-06-17T21:27:47.337Z,100058.71
2023-06-17T21:30:16.032Z,100055.70
2023-06-17T21:32:43.441Z,100056.73
2023-06-17T21:35:11.082Z,100053.88
2023-06-17T21:37:38.515Z,100057.11
2023-06-17T21:40:06.984Z,100057.70
2023-06-17T21:42:34.552Z,100058.16
2023-06-17T21:45:01.899Z,100055.29
2023-06-17T21:47:29.575Z,100057.67
2023-06-17T21:49:57.128Z,100060.13
2023-06-17T21:52:24.739Z,100060.55
2023-06-17T21:54:52.133Z,100061.06
2023-06-17T21:57:21.032Z,100062.59
2023-06-17T21:59:48.359Z,100059.95
2023-06-17T22:02:16.179Z,100056.98
2023-06-17T22:04:43.740Z,100053.37
2023-06-17T22:07:11.146Z,100052.45
2023-06-17T22:09:38.710Z,100053.71
2023-06-17T22:12:07.186Z,100053.91
2023-06-17T22:14:34.675Z,100056.02
2023-06-17T22:17:02.530Z,100054.10
2023-06-17T22:19:29.903Z,100058.73
2023-06-17T22:21:57.550Z,100062.12
2023-06-17T22:24:25.150Z,100061.38
2023-06-17T22:26:52.628Z,100059.67
2023-06-17T22:29:20.233Z,100062.39
2023-06-17T22:31:47.696Z,100062.52
2023-06-17T22:34:15.251Z,100061.77
2023-06-17T22:36:42.755Z,100060.95
2023-06-17T22:39:10.374Z,100057.35
2023-06-17T22:41:37.939Z,100056.45
2023-06-17T22:44:05.638Z,100057.94
2023-06-17T22:46:33.212Z,100054.33
2023-06-17T22:49:00.859Z,100053.40
2023-06-17T22:51:28.214Z,100054.02
2023-06-17T22:53:55.836Z,100053.80
2023-06-17T22:56:23.296Z,100056.52
2023-06-17T22:58:50.956Z,100057.92
2023-06-17T23:01:18.676Z,100056.64
2023-06-17T23:03:46.383Z,100052.48
2023-06-17T23:06:13.943Z,100053.96
2023-06-17T23:08:42.320Z,100056.42
2023-06-17T23:11:09.986Z,100064.34
2023-06-17T23:13:37.849Z,100064.13
2023-06-17T23:16:05.867Z,100062.32
2023-06-17T23:18:33.302Z,100065.55
2023-06-17T23:21:00.939Z,100064.35
2023-06-17T23:23:28.795Z,100063.16
2023-06-17T23:25:57.520Z,100062.96
2023-06-17T23:28:25.954Z,100063.29
2023-06-17T23:30:53.636Z,100063.16
2023-06-17T23:33:21.073Z,100063.66
2023-06-17T23:35:48.559Z,100061.18
2023-06-17T23:38:16.355Z,100056.75
2023-06-17T23:40:43.981Z,100054.25
2023-06-17T23:43:11.643Z,100051.90
2023-06-17T23:45:39.362Z,100054.55
2023-06-17T23:48:07.027Z,100060.92
2023-06-17T23:50:34.564Z,100065.27
2023-06-17T23:53:01.956Z,100063.27
2023-06-17T23:55:29.295Z,100071.34
2023-06-17T23:57:56.702Z,100069.33
